KELM/ELM METAR and TAF weather

Enter ICAO airport designator
Station Type Date Time Source
KELM METAR 2020/02/20 23:53 UTC NOAA

KELM 202353Z 01003KT 9SM FEW020 BKN030 M07/M11 A3045 RMK AO2 SNB28E53 SLP329 P0000 60000 T10721111 11022 21072 53010


Station Type Date Time Source
KELM Decoded METAR 2020/02/20 23:53 UTC NOAA

ELMIRA COUNTY AIRPORT, NY, United States (KELM) 42-10N 76-54W 302M
Feb 20, 2020 - 06:53 PM EST / 2020.02.20 2353 UTC
Wind: from the N (010 degrees) at 3 MPH (3 KT):0
Visibility: 9 mile(s):0
Sky conditions: mostly cloudy
Precipitation last hour: A trace
Temperature: 19.0 F (-7.2 C)
Dew Point: 12.0 F (-11.1 C)
Relative Humidity: 73%
Pressure (altimeter): 30.45 in. Hg (1031 hPa)
Pressure tendency: 0.03 inches (1.0 hPa) higher than three hours ago
ob: KELM 202353Z 01003KT 9SM FEW020 BKN030 M07/M11 A3045 RMK AO2 SNB28E53 SLP329 P0000 60000 T10721111 11022 21072 53010
cycle: 0

Station Type Date Time Source
KELM TAF 2020/02/20 23:52 UTC NOAA

TAF
AMD KELM 202250Z 2023/2118 36010KT P6SM BKN025
FM210100 VRB03KT P6SM SCT250
FM211400 26006KT P6SM SKC

Example: see airport list